sensor_id;sensor_type;location;lat;lon;timestamp;P1;durP1;ratioP1;P2;durP2;ratioP2
6185;SDS011;3126;52.738;8.316;2023-05-07T00:01:02;33.63;;;19.02;;
6185;SDS011;3126;52.738;8.316;2023-05-07T00:06:03;35.60;;;19.65;;
6185;SDS011;3126;52.738;8.316;2023-05-07T00:11:04;29.10;;;18.52;;
6185;SDS011;3126;52.738;8.316;2023-05-07T00:16:05;31.08;;;18.55;;
6185;SDS011;3126;52.738;8.316;2023-05-07T00:21:05;28.67;;;18.35;;
6185;SDS011;3126;52.738;8.316;2023-05-07T00:26:06;27.40;;;18.10;;
6185;SDS011;3126;52.738;8.316;2023-05-07T00:31:07;30.58;;;18.55;;
6185;SDS011;3126;52.738;8.316;2023-05-07T00:36:07;27.85;;;17.33;;
6185;SDS011;3126;52.738;8.316;2023-05-07T00:41:08;26.13;;;16.90;;
6185;SDS011;3126;52.738;8.316;2023-05-07T00:46:09;24.77;;;16.92;;
6185;SDS011;3126;52.738;8.316;2023-05-07T00:51:10;26.67;;;17.52;;
6185;SDS011;3126;52.738;8.316;2023-05-07T00:56:11;27.52;;;16.73;;
6185;SDS011;3126;52.738;8.316;2023-05-07T01:01:13;23.02;;;15.32;;
6185;SDS011;3126;52.738;8.316;2023-05-07T01:06:16;26.92;;;15.75;;
6185;SDS011;3126;52.738;8.316;2023-05-07T01:11:18;22.42;;;15.52;;
6185;SDS011;3126;52.738;8.316;2023-05-07T01:16:20;26.15;;;15.88;;
6185;SDS011;3126;52.738;8.316;2023-05-07T01:21:25;22.58;;;15.70;;
6185;SDS011;3126;52.738;8.316;2023-05-07T01:26:26;22.95;;;15.63;;
6185;SDS011;3126;52.738;8.316;2023-05-07T01:31:27;21.20;;;15.63;;
6185;SDS011;3126;52.738;8.316;2023-05-07T01:36:28;23.50;;;15.07;;
6185;SDS011;3126;52.738;8.316;2023-05-07T01:41:30;19.40;;;13.65;;
6185;SDS011;3126;52.738;8.316;2023-05-07T01:46:32;18.75;;;13.50;;
6185;SDS011;3126;52.738;8.316;2023-05-07T01:51:33;20.67;;;14.45;;
6185;SDS011;3126;52.738;8.316;2023-05-07T01:56:34;19.92;;;13.68;;
6185;SDS011;3126;52.738;8.316;2023-05-07T02:01:35;22.55;;;13.82;;
6185;SDS011;3126;52.738;8.316;2023-05-07T02:06:36;22.50;;;15.15;;
6185;SDS011;3126;52.738;8.316;2023-05-07T02:11:37;21.80;;;15.10;;
6185;SDS011;3126;52.738;8.316;2023-05-07T02:16:37;22.27;;;15.27;;
6185;SDS011;3126;52.738;8.316;2023-05-07T02:21:38;22.35;;;14.48;;
6185;SDS011;3126;52.738;8.316;2023-05-07T02:26:40;19.73;;;15.90;;
6185;SDS011;3126;52.738;8.316;2023-05-07T02:31:41;21.20;;;14.35;;
6185;SDS011;3126;52.738;8.316;2023-05-07T02:36:42;21.13;;;14.35;;
6185;SDS011;3126;52.738;8.316;2023-05-07T02:41:43;20.67;;;14.25;;
6185;SDS011;3126;52.738;8.316;2023-05-07T02:46:44;21.60;;;14.63;;
6185;SDS011;3126;52.738;8.316;2023-05-07T02:51:45;21.35;;;14.35;;
6185;SDS011;3126;52.738;8.316;2023-05-07T02:56:45;22.10;;;14.93;;
6185;SDS011;3126;52.738;8.316;2023-05-07T03:01:46;19.95;;;14.23;;
6185;SDS011;3126;52.738;8.316;2023-05-07T03:06:46;20.33;;;13.45;;
6185;SDS011;3126;52.738;8.316;2023-05-07T03:11:48;21.17;;;14.65;;
6185;SDS011;3126;52.738;8.316;2023-05-07T03:16:49;20.73;;;14.43;;
6185;SDS011;3126;52.738;8.316;2023-05-07T03:21:50;24.15;;;15.52;;
6185;SDS011;3126;52.738;8.316;2023-05-07T03:26:50;20.15;;;14.07;;
6185;SDS011;3126;52.738;8.316;2023-05-07T03:31:51;22.42;;;14.55;;
6185;SDS011;3126;52.738;8.316;2023-05-07T03:36:51;25.70;;;15.55;;
6185;SDS011;3126;52.738;8.316;2023-05-07T03:41:52;24.20;;;15.65;;
6185;SDS011;3126;52.738;8.316;2023-05-07T03:46:53;23.20;;;14.70;;
6185;SDS011;3126;52.738;8.316;2023-05-07T03:51:55;23.65;;;15.00;;
6185;SDS011;3126;52.738;8.316;2023-05-07T03:56:56;23.75;;;15.52;;
6185;SDS011;3126;52.738;8.316;2023-05-07T04:01:57;25.17;;;13.95;;
6185;SDS011;3126;52.738;8.316;2023-05-07T04:06:58;28.50;;;15.52;;
6185;SDS011;3126;52.738;8.316;2023-05-07T04:12:03;25.13;;;15.27;;
6185;SDS011;3126;52.738;8.316;2023-05-07T04:17:03;25.45;;;15.55;;
6185;SDS011;3126;52.738;8.316;2023-05-07T04:22:05;26.27;;;15.25;;
6185;SDS011;3126;52.738;8.316;2023-05-07T04:27:06;22.38;;;14.88;;
6185;SDS011;3126;52.738;8.316;2023-05-07T04:32:07;24.77;;;16.10;;
6185;SDS011;3126;52.738;8.316;2023-05-07T04:37:08;24.45;;;15.90;;
6185;SDS011;3126;52.738;8.316;2023-05-07T04:42:09;21.42;;;14.80;;
6185;SDS011;3126;52.738;8.316;2023-05-07T04:47:15;27.13;;;16.05;;
6185;SDS011;3126;52.738;8.316;2023-05-07T04:52:16;24.20;;;13.95;;
6185;SDS011;3126;52.738;8.316;2023-05-07T04:57:16;26.02;;;16.52;;
6185;SDS011;3126;52.738;8.316;2023-05-07T05:02:17;27.95;;;15.65;;
6185;SDS011;3126;52.738;8.316;2023-05-07T05:07:18;28.35;;;15.85;;
6185;SDS011;3126;52.738;8.316;2023-05-07T05:12:18;23.73;;;14.75;;
6185;SDS011;3126;52.738;8.316;2023-05-07T05:17:19;23.73;;;15.98;;
6185;SDS011;3126;52.738;8.316;2023-05-07T05:22:19;23.98;;;16.38;;
6185;SDS011;3126;52.738;8.316;2023-05-07T05:27:20;26.30;;;15.63;;
6185;SDS011;3126;52.738;8.316;2023-05-07T05:32:22;23.40;;;14.60;;
6185;SDS011;3126;52.738;8.316;2023-05-07T05:37:22;26.25;;;16.00;;
6185;SDS011;3126;52.738;8.316;2023-05-07T05:42:23;27.83;;;15.05;;
6185;SDS011;3126;52.738;8.316;2023-05-07T05:47:24;25.17;;;15.60;;
6185;SDS011;3126;52.738;8.316;2023-05-07T05:52:25;23.00;;;15.05;;
6185;SDS011;3126;52.738;8.316;2023-05-07T05:57:25;21.17;;;13.65;;
6185;SDS011;3126;52.738;8.316;2023-05-07T06:02:26;23.15;;;14.15;;
6185;SDS011;3126;52.738;8.316;2023-05-07T06:07:26;21.27;;;13.88;;
6185;SDS011;3126;52.738;8.316;2023-05-07T06:12:27;21.58;;;12.80;;
6185;SDS011;3126;52.738;8.316;2023-05-07T06:17:27;19.58;;;12.32;;
6185;SDS011;3126;52.738;8.316;2023-05-07T06:22:28;18.45;;;11.48;;
6185;SDS011;3126;52.738;8.316;2023-05-07T06:27:29;17.92;;;11.52;;
6185;SDS011;3126;52.738;8.316;2023-05-07T06:32:29;18.80;;;12.27;;
6185;SDS011;3126;52.738;8.316;2023-05-07T06:37:30;19.48;;;11.52;;
6185;SDS011;3126;52.738;8.316;2023-05-07T06:42:30;18.20;;;12.07;;
6185;SDS011;3126;52.738;8.316;2023-05-07T06:47:31;17.08;;;11.65;;
6185;SDS011;3126;52.738;8.316;2023-05-07T06:52:31;14.82;;;11.27;;
6185;SDS011;3126;52.738;8.316;2023-05-07T06:57:32;17.38;;;11.98;;
6185;SDS011;3126;52.738;8.316;2023-05-07T07:02:32;17.90;;;12.65;;
6185;SDS011;3126;52.738;8.316;2023-05-07T07:07:33;15.60;;;11.18;;
6185;SDS011;3126;52.738;8.316;2023-05-07T07:12:33;16.73;;;11.18;;
6185;SDS011;3126;52.738;8.316;2023-05-07T07:17:34;16.42;;;11.23;;
6185;SDS011;3126;52.738;8.316;2023-05-07T07:22:35;15.63;;;10.80;;
6185;SDS011;3126;52.738;8.316;2023-05-07T07:27:35;17.30;;;11.63;;
6185;SDS011;3126;52.738;8.316;2023-05-07T07:32:37;15.23;;;11.43;;
6185;SDS011;3126;52.738;8.316;2023-05-07T07:37:38;14.05;;;10.55;;
6185;SDS011;3126;52.738;8.316;2023-05-07T07:42:39;15.60;;;11.15;;
6185;SDS011;3126;52.738;8.316;2023-05-07T07:47:39;14.07;;;10.52;;
6185;SDS011;3126;52.738;8.316;2023-05-07T07:52:40;13.00;;;9.95;;
6185;SDS011;3126;52.738;8.316;2023-05-07T07:57:41;13.82;;;10.02;;
6185;SDS011;3126;52.738;8.316;2023-05-07T08:02:41;12.85;;;10.15;;
6185;SDS011;3126;52.738;8.316;2023-05-07T08:07:42;13.35;;;10.70;;
6185;SDS011;3126;52.738;8.316;2023-05-07T08:12:42;13.60;;;10.55;;
6185;SDS011;3126;52.738;8.316;2023-05-07T08:17:43;16.90;;;10.43;;
6185;SDS011;3126;52.738;8.316;2023-05-07T08:22:43;14.98;;;12.07;;
6185;SDS011;3126;52.738;8.316;2023-05-07T08:27:44;14.45;;;10.80;;
6185;SDS011;3126;52.738;8.316;2023-05-07T08:32:44;12.32;;;10.25;;
6185;SDS011;3126;52.738;8.316;2023-05-07T08:37:45;12.43;;;10.05;;
6185;SDS011;3126;52.738;8.316;2023-05-07T08:42:48;13.38;;;9.52;;
6185;SDS011;3126;52.738;8.316;2023-05-07T08:47:51;12.68;;;9.73;;
6185;SDS011;3126;52.738;8.316;2023-05-07T08:52:55;12.07;;;9.85;;
6185;SDS011;3126;52.738;8.316;2023-05-07T08:57:56;12.20;;;9.57;;
6185;SDS011;3126;52.738;8.316;2023-05-07T09:02:57;10.63;;;8.38;;
6185;SDS011;3126;52.738;8.316;2023-05-07T09:07:59;11.57;;;8.63;;
6185;SDS011;3126;52.738;8.316;2023-05-07T09:13:02;10.30;;;8.38;;
6185;SDS011;3126;52.738;8.316;2023-05-07T09:18:03;9.45;;;8.13;;
6185;SDS011;3126;52.738;8.316;2023-05-07T09:23:06;10.93;;;9.10;;
6185;SDS011;3126;52.738;8.316;2023-05-07T09:28:07;10.52;;;8.73;;
6185;SDS011;3126;52.738;8.316;2023-05-07T09:33:10;11.18;;;8.98;;
6185;SDS011;3126;52.738;8.316;2023-05-07T09:38:10;8.82;;;7.78;;
6185;SDS011;3126;52.738;8.316;2023-05-07T09:43:11;9.18;;;7.50;;
6185;SDS011;3126;52.738;8.316;2023-05-07T09:48:13;8.77;;;7.80;;
6185;SDS011;3126;52.738;8.316;2023-05-07T09:53:17;8.68;;;7.53;;
6185;SDS011;3126;52.738;8.316;2023-05-07T09:58:18;9.52;;;7.97;;
6185;SDS011;3126;52.738;8.316;2023-05-07T10:03:22;10.48;;;9.38;;
6185;SDS011;3126;52.738;8.316;2023-05-07T10:08:27;10.55;;;8.88;;
6185;SDS011;3126;52.738;8.316;2023-05-07T10:13:28;10.23;;;9.10;;
6185;SDS011;3126;52.738;8.316;2023-05-07T10:18:30;11.20;;;10.05;;
6185;SDS011;3126;52.738;8.316;2023-05-07T10:23:32;10.18;;;9.18;;
6185;SDS011;3126;52.738;8.316;2023-05-07T10:28:35;10.13;;;9.18;;
6185;SDS011;3126;52.738;8.316;2023-05-07T10:33:41;11.73;;;10.50;;
6185;SDS011;3126;52.738;8.316;2023-05-07T10:38:45;11.82;;;10.57;;
6185;SDS011;3126;52.738;8.316;2023-05-07T10:43:47;11.63;;;10.52;;
6185;SDS011;3126;52.738;8.316;2023-05-07T11:09:53;12.30;;;11.05;;
6185;SDS011;3126;52.738;8.316;2023-05-07T11:14:55;11.10;;;9.88;;
6185;SDS011;3126;52.738;8.316;2023-05-07T11:19:58;11.15;;;10.05;;
6185;SDS011;3126;52.738;8.316;2023-05-07T11:25:00;10.65;;;9.55;;
6185;SDS011;3126;52.738;8.316;2023-05-07T11:30:01;10.27;;;9.27;;
6185;SDS011;3126;52.738;8.316;2023-05-07T11:35:02;9.85;;;8.90;;
6185;SDS011;3126;52.738;8.316;2023-05-07T11:40:03;9.82;;;8.48;;
6185;SDS011;3126;52.738;8.316;2023-05-07T11:45:09;10.35;;;8.68;;
6185;SDS011;3126;52.738;8.316;2023-05-07T11:50:10;10.63;;;8.98;;
6185;SDS011;3126;52.738;8.316;2023-05-07T11:55:10;10.50;;;9.55;;
6185;SDS011;3126;52.738;8.316;2023-05-07T12:00:15;10.98;;;9.48;;
6185;SDS011;3126;52.738;8.316;2023-05-07T12:05:16;11.73;;;8.90;;
6185;SDS011;3126;52.738;8.316;2023-05-07T12:10:16;10.05;;;9.15;;
6185;SDS011;3126;52.738;8.316;2023-05-07T12:15:22;9.48;;;8.57;;
6185;SDS011;3126;52.738;8.316;2023-05-07T12:20:22;9.60;;;8.70;;
6185;SDS011;3126;52.738;8.316;2023-05-07T12:25:23;9.70;;;8.70;;
6185;SDS011;3126;52.738;8.316;2023-05-07T12:30:25;10.98;;;9.93;;
6185;SDS011;3126;52.738;8.316;2023-05-07T12:35:29;11.50;;;9.80;;
6185;SDS011;3126;52.738;8.316;2023-05-07T12:40:37;10.40;;;9.30;;
6185;SDS011;3126;52.738;8.316;2023-05-07T12:45:42;10.43;;;8.88;;
6185;SDS011;3126;52.738;8.316;2023-05-07T12:50:43;9.50;;;8.60;;
6185;SDS011;3126;52.738;8.316;2023-05-07T12:55:44;12.98;;;9.27;;
6185;SDS011;3126;52.738;8.316;2023-05-07T13:00:49;10.88;;;9.82;;
6185;SDS011;3126;52.738;8.316;2023-05-07T13:05:51;10.32;;;9.20;;
6185;SDS011;3126;52.738;8.316;2023-05-07T13:10:52;10.45;;;9.45;;
6185;SDS011;3126;52.738;8.316;2023-05-07T13:15:53;10.32;;;8.95;;
6185;SDS011;3126;52.738;8.316;2023-05-07T13:20:53;10.43;;;9.30;;
6185;SDS011;3126;52.738;8.316;2023-05-07T13:25:54;11.32;;;10.25;;
6185;SDS011;3126;52.738;8.316;2023-05-07T13:30:55;10.93;;;9.77;;
6185;SDS011;3126;52.738;8.316;2023-05-07T13:35:56;11.55;;;10.35;;
6185;SDS011;3126;52.738;8.316;2023-05-07T13:40:57;11.52;;;10.30;;
6185;SDS011;3126;52.738;8.316;2023-05-07T13:45:58;11.25;;;10.20;;
6185;SDS011;3126;52.738;8.316;2023-05-07T13:50:59;11.75;;;10.65;;
6185;SDS011;3126;52.738;8.316;2023-05-07T13:55:59;12.13;;;10.80;;
6185;SDS011;3126;52.738;8.316;2023-05-07T14:01:00;12.25;;;10.98;;
6185;SDS011;3126;52.738;8.316;2023-05-07T14:06:00;11.98;;;10.85;;
6185;SDS011;3126;52.738;8.316;2023-05-07T14:11:01;12.10;;;9.90;;
6185;SDS011;3126;52.738;8.316;2023-05-07T14:16:03;12.77;;;9.75;;
6185;SDS011;3126;52.738;8.316;2023-05-07T14:21:04;10.85;;;9.70;;
6185;SDS011;3126;52.738;8.316;2023-05-07T14:26:06;12.32;;;9.68;;
6185;SDS011;3126;52.738;8.316;2023-05-07T14:31:07;11.68;;;10.13;;
6185;SDS011;3126;52.738;8.316;2023-05-07T14:36:08;9.60;;;8.70;;
6185;SDS011;3126;52.738;8.316;2023-05-07T14:41:08;10.68;;;8.68;;
6185;SDS011;3126;52.738;8.316;2023-05-07T14:46:09;9.18;;;8.25;;
6185;SDS011;3126;52.738;8.316;2023-05-07T14:51:09;9.27;;;8.00;;
6185;SDS011;3126;52.738;8.316;2023-05-07T14:56:10;10.25;;;8.88;;
6185;SDS011;3126;52.738;8.316;2023-05-07T15:01:11;9.40;;;8.50;;
6185;SDS011;3126;52.738;8.316;2023-05-07T15:06:12;8.77;;;7.97;;
6185;SDS011;3126;52.738;8.316;2023-05-07T15:11:12;8.80;;;7.90;;
6185;SDS011;3126;52.738;8.316;2023-05-07T15:16:13;8.60;;;7.72;;
6185;SDS011;3126;52.738;8.316;2023-05-07T15:21:13;8.73;;;7.90;;
6185;SDS011;3126;52.738;8.316;2023-05-07T15:26:14;9.13;;;8.32;;
6185;SDS011;3126;52.738;8.316;2023-05-07T15:31:15;8.38;;;7.60;;
6185;SDS011;3126;52.738;8.316;2023-05-07T15:36:16;8.48;;;7.57;;
6185;SDS011;3126;52.738;8.316;2023-05-07T15:41:17;10.88;;;8.73;;
6185;SDS011;3126;52.738;8.316;2023-05-07T15:46:18;8.07;;;6.78;;
6185;SDS011;3126;52.738;8.316;2023-05-07T15:51:19;7.97;;;7.18;;
6185;SDS011;3126;52.738;8.316;2023-05-07T15:56:21;7.97;;;7.28;;
6185;SDS011;3126;52.738;8.316;2023-05-07T16:01:22;7.55;;;6.82;;
6185;SDS011;3126;52.738;8.316;2023-05-07T16:06:22;7.03;;;6.13;;
6185;SDS011;3126;52.738;8.316;2023-05-07T16:11:23;8.55;;;6.93;;
6185;SDS011;3126;52.738;8.316;2023-05-07T16:16:24;7.07;;;6.38;;
6185;SDS011;3126;52.738;8.316;2023-05-07T16:21:28;8.02;;;7.07;;
6185;SDS011;3126;52.738;8.316;2023-05-07T16:26:29;7.40;;;6.70;;
6185;SDS011;3126;52.738;8.316;2023-05-07T16:31:30;7.03;;;6.43;;
6185;SDS011;3126;52.738;8.316;2023-05-07T16:36:31;6.88;;;6.20;;
6185;SDS011;3126;52.738;8.316;2023-05-07T16:41:32;6.82;;;6.22;;
6185;SDS011;3126;52.738;8.316;2023-05-07T16:46:33;7.70;;;6.72;;
6185;SDS011;3126;52.738;8.316;2023-05-07T16:51:35;7.55;;;6.85;;
6185;SDS011;3126;52.738;8.316;2023-05-07T16:56:35;8.23;;;6.30;;
6185;SDS011;3126;52.738;8.316;2023-05-07T17:01:36;6.88;;;6.18;;
6185;SDS011;3126;52.738;8.316;2023-05-07T17:06:36;7.38;;;6.72;;
6185;SDS011;3126;52.738;8.316;2023-05-07T17:11:37;7.07;;;6.45;;
6185;SDS011;3126;52.738;8.316;2023-05-07T17:16:37;8.02;;;7.22;;
6185;SDS011;3126;52.738;8.316;2023-05-07T17:21:38;7.78;;;7.07;;
6185;SDS011;3126;52.738;8.316;2023-05-07T17:26:39;7.57;;;6.97;;
6185;SDS011;3126;52.738;8.316;2023-05-07T17:31:41;7.80;;;6.93;;
6185;SDS011;3126;52.738;8.316;2023-05-07T17:36:42;8.27;;;7.47;;
6185;SDS011;3126;52.738;8.316;2023-05-07T17:41:42;8.45;;;7.65;;
6185;SDS011;3126;52.738;8.316;2023-05-07T17:46:43;8.35;;;6.43;;
6185;SDS011;3126;52.738;8.316;2023-05-07T17:51:43;6.78;;;6.05;;
6185;SDS011;3126;52.738;8.316;2023-05-07T17:56:44;7.60;;;6.70;;
6185;SDS011;3126;52.738;8.316;2023-05-07T18:01:44;8.73;;;6.22;;
6185;SDS011;3126;52.738;8.316;2023-05-07T18:06:45;6.82;;;6.13;;
6185;SDS011;3126;52.738;8.316;2023-05-07T18:11:46;6.57;;;5.97;;
6185;SDS011;3126;52.738;8.316;2023-05-07T18:16:46;7.97;;;6.55;;
6185;SDS011;3126;52.738;8.316;2023-05-07T18:21:47;6.63;;;5.95;;
6185;SDS011;3126;52.738;8.316;2023-05-07T18:26:49;7.50;;;6.25;;
6185;SDS011;3126;52.738;8.316;2023-05-07T18:31:49;9.55;;;6.85;;
6185;SDS011;3126;52.738;8.316;2023-05-07T18:36:50;7.07;;;5.72;;
6185;SDS011;3126;52.738;8.316;2023-05-07T18:41:51;6.55;;;5.95;;
6185;SDS011;3126;52.738;8.316;2023-05-07T18:46:52;7.32;;;5.93;;
6185;SDS011;3126;52.738;8.316;2023-05-07T18:51:52;7.15;;;6.45;;
6185;SDS011;3126;52.738;8.316;2023-05-07T18:56:53;6.82;;;6.13;;
6185;SDS011;3126;52.738;8.316;2023-05-07T19:01:53;7.18;;;6.47;;
6185;SDS011;3126;52.738;8.316;2023-05-07T19:06:55;6.97;;;6.28;;
6185;SDS011;3126;52.738;8.316;2023-05-07T19:11:56;7.95;;;7.15;;
6185;SDS011;3126;52.738;8.316;2023-05-07T19:16:57;6.93;;;6.00;;
6185;SDS011;3126;52.738;8.316;2023-05-07T19:21:58;6.72;;;5.93;;
6185;SDS011;3126;52.738;8.316;2023-05-07T19:26:58;7.60;;;6.78;;
6185;SDS011;3126;52.738;8.316;2023-05-07T19:31:59;7.43;;;6.63;;
6185;SDS011;3126;52.738;8.316;2023-05-07T19:37:01;9.05;;;6.80;;
6185;SDS011;3126;52.738;8.316;2023-05-07T19:42:01;7.68;;;6.65;;
6185;SDS011;3126;52.738;8.316;2023-05-07T19:47:02;8.82;;;7.45;;
6185;SDS011;3126;52.738;8.316;2023-05-07T19:52:04;7.85;;;7.00;;
6185;SDS011;3126;52.738;8.316;2023-05-07T19:57:05;7.88;;;6.82;;
6185;SDS011;3126;52.738;8.316;2023-05-07T20:02:05;8.77;;;7.88;;
6185;SDS011;3126;52.738;8.316;2023-05-07T20:07:06;9.40;;;7.32;;
6185;SDS011;3126;52.738;8.316;2023-05-07T20:12:07;8.90;;;7.60;;
6185;SDS011;3126;52.738;8.316;2023-05-07T20:17:07;7.65;;;6.93;;
6185;SDS011;3126;52.738;8.316;2023-05-07T20:22:12;7.55;;;6.75;;
6185;SDS011;3126;52.738;8.316;2023-05-07T20:27:13;7.22;;;6.40;;
6185;SDS011;3126;52.738;8.316;2023-05-07T20:32:16;9.18;;;7.15;;
6185;SDS011;3126;52.738;8.316;2023-05-07T20:37:17;8.15;;;7.00;;
6185;SDS011;3126;52.738;8.316;2023-05-07T20:42:17;8.15;;;6.70;;
6185;SDS011;3126;52.738;8.316;2023-05-07T20:47:18;6.82;;;5.93;;
6185;SDS011;3126;52.738;8.316;2023-05-07T20:52:18;10.10;;;7.25;;
6185;SDS011;3126;52.738;8.316;2023-05-07T20:57:19;9.90;;;7.57;;
6185;SDS011;3126;52.738;8.316;2023-05-07T21:02:20;8.82;;;7.10;;
6185;SDS011;3126;52.738;8.316;2023-05-07T21:07:21;8.25;;;7.28;;
6185;SDS011;3126;52.738;8.316;2023-05-07T21:12:21;8.57;;;7.15;;
6185;SDS011;3126;52.738;8.316;2023-05-07T21:17:22;9.00;;;7.63;;
6185;SDS011;3126;52.738;8.316;2023-05-07T21:22:24;9.73;;;7.20;;
6185;SDS011;3126;52.738;8.316;2023-05-07T21:27:26;9.05;;;7.65;;
6185;SDS011;3126;52.738;8.316;2023-05-07T21:32:28;9.07;;;7.25;;
6185;SDS011;3126;52.738;8.316;2023-05-07T21:37:28;8.85;;;7.05;;
6185;SDS011;3126;52.738;8.316;2023-05-07T21:42:29;9.95;;;8.05;;
6185;SDS011;3126;52.738;8.316;2023-05-07T21:47:30;9.90;;;7.68;;
6185;SDS011;3126;52.738;8.316;2023-05-07T21:52:30;10.93;;;8.43;;
6185;SDS011;3126;52.738;8.316;2023-05-07T21:57:31;11.00;;;8.52;;
6185;SDS011;3126;52.738;8.316;2023-05-07T22:02:32;10.38;;;8.15;;
6185;SDS011;3126;52.738;8.316;2023-05-07T22:07:32;11.52;;;8.23;;
6185;SDS011;3126;52.738;8.316;2023-05-07T22:12:33;8.25;;;7.25;;
6185;SDS011;3126;52.738;8.316;2023-05-07T22:17:33;10.98;;;7.43;;
6185;SDS011;3126;52.738;8.316;2023-05-07T22:22:50;11.60;;;7.93;;
6185;SDS011;3126;52.738;8.316;2023-05-07T22:27:51;9.52;;;7.85;;
6185;SDS011;3126;52.738;8.316;2023-05-07T22:32:52;8.98;;;7.78;;
6185;SDS011;3126;52.738;8.316;2023-05-07T22:37:53;9.10;;;7.28;;
6185;SDS011;3126;52.738;8.316;2023-05-07T22:42:53;10.55;;;7.47;;
6185;SDS011;3126;52.738;8.316;2023-05-07T22:47:54;8.05;;;7.18;;
6185;SDS011;3126;52.738;8.316;2023-05-07T22:52:54;11.45;;;7.60;;
6185;SDS011;3126;52.738;8.316;2023-05-07T22:57:55;8.60;;;7.07;;
6185;SDS011;3126;52.738;8.316;2023-05-07T23:02:56;9.55;;;7.72;;
6185;SDS011;3126;52.738;8.316;2023-05-07T23:07:57;8.60;;;7.20;;
6185;SDS011;3126;52.738;8.316;2023-05-07T23:12:57;8.27;;;6.90;;
6185;SDS011;3126;52.738;8.316;2023-05-07T23:17:58;8.35;;;6.95;;
6185;SDS011;3126;52.738;8.316;2023-05-07T23:22:58;7.97;;;6.75;;
6185;SDS011;3126;52.738;8.316;2023-05-07T23:27:59;9.35;;;7.22;;
6185;SDS011;3126;52.738;8.316;2023-05-07T23:33:00;8.40;;;6.50;;
6185;SDS011;3126;52.738;8.316;2023-05-07T23:38:00;9.07;;;8.07;;
6185;SDS011;3126;52.738;8.316;2023-05-07T23:43:01;8.63;;;7.57;;
6185;SDS011;3126;52.738;8.316;2023-05-07T23:48:02;7.82;;;7.03;;
6185;SDS011;3126;52.738;8.316;2023-05-07T23:53:02;7.82;;;6.97;;
6185;SDS011;3126;52.738;8.316;2023-05-07T23:58:04;10.00;;;7.57;;
